Red Lake, Canada
Current Conditions -  °F | °C
As of 5:00 PM on Friday 19 Dec 2014 (Local Time) from CYRL Reporting Station
Light Snow Light Snow  
Wind Chill: 13°   Ceiling: 1200
Heat Index: 21°   Visibility: 12mi
Dew Point: 18°   Wind: 7mph
Humidity: 86%   Direction: 130°SE
Pressure: 30.08"   Gusts: NA
Location:  51.09°N, 93.97°W
Report Text: CYRL 192300Z 13006KT 12SM -SN DRSN OVC012 M06/M08 A3008 RMK SC8 SLP215
Loading
Personal Weather Stations






























Interactive Weather Map New forecast layout! Learn more

10-Day Weather Forecast

Advertisements
Track Severe Weather on mobile